createdAt,value
2022-08-07T00:00:59.655Z,16.00
2022-08-07T00:04:01.571Z,16.04
2022-08-07T00:07:05.498Z,16.24
2022-08-07T00:10:26.325Z,16.23
2022-08-07T00:13:29.430Z,16.27
2022-08-07T00:16:31.247Z,16.19
2022-08-07T00:20:00.536Z,16.07
2022-08-07T00:22:55.729Z,16.06
2022-08-07T00:26:02.823Z,15.99
2022-08-07T00:29:15.324Z,16.06
2022-08-07T00:32:18.737Z,16.07
2022-08-07T00:35:30.509Z,15.98
2022-08-07T00:38:34.131Z,15.96
2022-08-07T00:41:37.311Z,15.92
2022-08-07T00:44:47.308Z,15.88
2022-08-07T00:48:08.802Z,15.79
2022-08-07T00:51:13.901Z,15.71
2022-08-07T00:54:16.310Z,15.63
2022-08-07T00:57:26.630Z,15.58
2022-08-07T01:00:35.673Z,15.53
2022-08-07T01:03:57.127Z,15.64
2022-08-07T01:06:59.578Z,15.57
2022-08-07T01:10:06.300Z,15.49
2022-08-07T01:13:16.344Z,15.46
2022-08-07T01:16:30.303Z,15.31
2022-08-07T01:19:34.475Z,15.34
2022-08-07T01:22:57.793Z,15.30
2022-08-07T01:26:07.936Z,15.15
2022-08-07T01:29:15.759Z,15.26
2022-08-07T01:32:18.243Z,15.38
2022-08-07T01:35:24.454Z,15.33
2022-08-07T01:38:29.284Z,15.31
2022-08-07T01:41:36.332Z,15.32
2022-08-07T01:44:39.092Z,15.32
2022-08-07T01:48:19.912Z,15.23
2022-08-07T01:51:24.331Z,15.16
2022-08-07T01:54:36.769Z,15.11
2022-08-07T01:58:06.407Z,15.12
2022-08-07T02:01:58.758Z,15.05
2022-08-07T02:04:56.022Z,14.99
2022-08-07T02:08:03.018Z,14.91
2022-08-07T02:11:30.917Z,14.83
2022-08-07T02:14:40.796Z,14.82
2022-08-07T02:17:51.891Z,14.65
2022-08-07T02:20:57.837Z,14.65
2022-08-07T02:24:00.512Z,14.47
2022-08-07T02:27:04.357Z,14.44
2022-08-07T02:30:08.714Z,14.49
2022-08-07T02:33:13.961Z,14.43
2022-08-07T02:36:30.419Z,14.29
2022-08-07T02:39:43.979Z,14.25
2022-08-07T02:43:07.900Z,14.19
2022-08-07T02:46:11.596Z,14.17
2022-08-07T02:49:28.825Z,14.25
2022-08-07T02:53:03.329Z,14.13
2022-08-07T02:56:20.931Z,14.16
2022-08-07T02:59:27.710Z,14.19
2022-08-07T03:02:35.565Z,14.13
2022-08-07T03:05:39.426Z,14.10
2022-08-07T03:08:43.770Z,14.03
2022-08-07T03:11:51.936Z,14.02
2022-08-07T03:15:07.515Z,14.00
2022-08-07T03:18:17.490Z,13.89
2022-08-07T03:21:23.633Z,13.78
2022-08-07T03:24:27.761Z,13.73
2022-08-07T03:28:09.182Z,13.69
2022-08-07T03:31:17.350Z,13.70
2022-08-07T03:34:22.053Z,13.82
2022-08-07T03:37:28.984Z,13.88
2022-08-07T03:40:36.940Z,13.84
2022-08-07T03:43:57.506Z,13.80
2022-08-07T03:47:12.960Z,13.88
2022-08-07T03:50:23.177Z,13.86
2022-08-07T03:54:01.903Z,13.82
2022-08-07T03:57:03.582Z,13.96
2022-08-07T04:00:10.499Z,14.03
2022-08-07T04:03:21.733Z,13.90
2022-08-07T04:06:37.118Z,13.97
2022-08-07T04:09:50.173Z,13.91
2022-08-07T04:12:57.363Z,13.96
2022-08-07T04:16:01.454Z,13.98
2022-08-07T04:19:12.739Z,13.82
2022-08-07T04:22:29.479Z,13.84
2022-08-07T04:25:39.300Z,13.83
2022-08-07T04:28:43.085Z,13.80
2022-08-07T04:32:03.367Z,13.75
2022-08-07T04:35:11.490Z,13.69
2022-08-07T04:38:15.656Z,13.71
2022-08-07T04:41:22.249Z,13.69
2022-08-07T04:44:26.799Z,13.68
2022-08-07T04:47:56.903Z,13.67
2022-08-07T04:51:10.821Z,13.64
2022-08-07T04:54:30.124Z,13.53
2022-08-07T04:58:12.970Z,13.60
2022-08-07T05:01:30.281Z,13.65
2022-08-07T05:05:02.162Z,13.75
2022-08-07T05:08:14.465Z,13.85
2022-08-07T05:11:57.301Z,13.88
2022-08-07T05:14:59.375Z,13.86
2022-08-07T05:18:10.387Z,13.88
2022-08-07T05:21:18.497Z,13.83
2022-08-07T05:24:41.859Z,13.81
2022-08-07T05:28:03.411Z,13.89
2022-08-07T05:31:16.954Z,13.88
2022-08-07T05:34:21.343Z,13.70
2022-08-07T05:37:29.335Z,13.73
2022-08-07T05:40:50.391Z,13.92
2022-08-07T05:44:12.720Z,14.04
2022-08-07T05:47:20.921Z,14.13
2022-08-07T05:50:43.074Z,14.18
2022-08-07T05:54:13.621Z,14.10
2022-08-07T05:57:09.936Z,14.29
2022-08-07T06:00:16.347Z,14.28
2022-08-07T06:03:53.874Z,14.38
2022-08-07T06:06:56.635Z,14.34
2022-08-07T06:10:06.610Z,14.39
2022-08-07T06:13:17.833Z,14.49
2022-08-07T06:16:23.713Z,14.58
2022-08-07T06:19:51.752Z,14.68
2022-08-07T06:23:02.226Z,14.73
2022-08-07T06:26:20.271Z,14.81
2022-08-07T06:29:27.706Z,14.85
2022-08-07T06:32:32.718Z,14.94
2022-08-07T06:35:45.497Z,15.02
2022-08-07T06:38:59.495Z,15.12
2022-08-07T06:42:34.869Z,15.27
2022-08-07T06:45:49.053Z,15.46
2022-08-07T06:48:57.386Z,15.62
2022-08-07T06:52:13.620Z,15.74
2022-08-07T06:56:00.365Z,15.97
2022-08-07T07:00:13.649Z,16.25
2022-08-07T07:02:54.230Z,16.51
2022-08-07T07:06:10.932Z,16.79
2022-08-07T07:09:36.197Z,17.02
2022-08-07T07:12:58.873Z,17.53
2022-08-07T07:16:11.939Z,17.85
2022-08-07T07:19:56.131Z,18.13
2022-08-07T07:24:09.176Z,18.38
2022-08-07T07:26:34.780Z,18.77
2022-08-07T07:33:41.489Z,19.80
2022-08-07T07:36:54.175Z,20.29
2022-08-07T07:40:02.627Z,20.20
2022-08-07T07:43:18.747Z,20.76
2022-08-07T07:46:54.722Z,20.92
2022-08-07T07:50:33.020Z,21.01
2022-08-07T07:53:27.602Z,21.50
2022-08-07T07:56:34.106Z,21.88
2022-08-07T07:59:52.342Z,21.88
2022-08-07T08:03:04.510Z,22.19
2022-08-07T08:06:13.030Z,22.27
2022-08-07T08:09:20.658Z,22.46
2022-08-07T08:12:52.500Z,22.49
2022-08-07T08:15:58.920Z,22.59
2022-08-07T08:19:17.312Z,23.10
2022-08-07T08:22:55.803Z,23.51
2022-08-07T08:26:19.841Z,23.75
2022-08-07T08:29:22.629Z,23.67
2022-08-07T08:32:38.387Z,23.71
2022-08-07T08:35:46.961Z,23.69
2022-08-07T08:38:54.852Z,24.18
2022-08-07T08:42:04.993Z,24.64
2022-08-07T08:45:41.934Z,24.89
2022-08-07T08:49:10.305Z,25.10
2022-08-07T08:52:30.402Z,25.34
2022-08-07T08:55:54.371Z,25.43
2022-08-07T08:59:16.455Z,25.72
2022-08-07T09:02:36.378Z,25.54
2022-08-07T09:05:56.310Z,25.63
2022-08-07T09:09:13.489Z,25.80
2022-08-07T09:12:35.033Z,26.03
2022-08-07T09:16:22.942Z,26.13
2022-08-07T09:19:59.614Z,26.27
2022-08-07T09:24:33.684Z,26.76
2022-08-07T09:27:24.664Z,26.86
2022-08-07T09:30:54.917Z,27.15
2022-08-07T09:33:58.236Z,27.32
2022-08-07T09:37:04.868Z,27.29
2022-08-07T09:40:24.688Z,27.50
2022-08-07T09:44:06.585Z,27.10
2022-08-07T09:47:50.042Z,26.92
2022-08-07T09:51:02.074Z,27.46
2022-08-07T09:54:08.331Z,27.66
2022-08-07T09:57:46.481Z,27.41
2022-08-07T10:05:29.367Z,27.50
2022-08-07T10:09:01.277Z,28.29
2022-08-07T10:12:28.481Z,28.75
2022-08-07T10:16:15.113Z,28.69
2022-08-07T10:19:46.683Z,28.80
2022-08-07T10:23:10.556Z,29.00
2022-08-07T10:27:10.233Z,29.30
2022-08-07T10:30:36.961Z,29.17
2022-08-07T10:34:06.603Z,29.25
2022-08-07T10:38:00.398Z,29.28
2022-08-07T10:41:09.354Z,29.61
2022-08-07T10:44:39.037Z,29.22
2022-08-07T10:48:03.066Z,29.22
2022-08-07T10:51:39.138Z,29.56
2022-08-07T10:54:53.464Z,29.52
2022-08-07T10:58:12.873Z,29.81
2022-08-07T11:01:25.697Z,29.79
2022-08-07T11:05:15.435Z,29.79
2022-08-07T11:08:40.992Z,29.72
2022-08-07T11:12:01.675Z,30.49
2022-08-07T11:15:17.361Z,30.05
2022-08-07T11:18:36.983Z,30.07
2022-08-07T11:22:03.610Z,30.06
2022-08-07T11:25:06.834Z,30.13
2022-08-07T11:28:36.201Z,30.40
2022-08-07T11:32:12.145Z,30.82
2022-08-07T11:35:26.800Z,30.50
2022-08-07T11:38:59.273Z,30.55
2022-08-07T11:42:18.962Z,31.23
2022-08-07T11:45:37.870Z,31.08
2022-08-07T11:49:50.696Z,31.34
2022-08-07T11:52:28.950Z,31.14
2022-08-07T11:56:09.136Z,31.01
2022-08-07T12:00:12.602Z,31.15
2022-08-07T12:03:41.692Z,31.94
2022-08-07T12:06:55.354Z,31.37
2022-08-07T12:10:14.013Z,31.14
2022-08-07T12:13:35.267Z,31.55
2022-08-07T12:17:20.289Z,31.30
2022-08-07T12:20:43.446Z,31.56
2022-08-07T12:24:07.053Z,31.25
2022-08-07T12:27:18.632Z,31.97
2022-08-07T12:30:34.775Z,31.97
2022-08-07T12:34:00.919Z,31.97
2022-08-07T12:37:00.838Z,32.05
2022-08-07T12:40:05.038Z,32.08
2022-08-07T12:44:01.966Z,31.66
2022-08-07T12:47:09.749Z,31.43
2022-08-07T12:50:34.295Z,32.27
2022-08-07T12:54:37.096Z,32.15
2022-08-07T12:57:39.248Z,32.40
2022-08-07T13:01:32.530Z,32.23
2022-08-07T13:05:01.654Z,32.54
2022-08-07T13:08:34.074Z,32.19
2022-08-07T13:12:03.518Z,32.81
2022-08-07T13:15:36.448Z,32.27
2022-08-07T13:18:59.062Z,32.48
2022-08-07T13:22:19.432Z,32.04
2022-08-07T13:25:34.625Z,32.60
2022-08-07T13:28:47.033Z,32.71
2022-08-07T13:32:00.177Z,32.19
2022-08-07T13:35:25.633Z,32.85
2022-08-07T13:39:04.994Z,32.64
2022-08-07T13:42:18.872Z,32.63
2022-08-07T13:46:11.069Z,32.68
2022-08-07T13:48:51.934Z,33.07
2022-08-07T13:52:27.194Z,32.95
2022-08-07T13:55:36.967Z,31.96
2022-08-07T13:59:00.604Z,31.80
2022-08-07T14:02:12.956Z,32.21
2022-08-07T14:05:23.198Z,32.73
2022-08-07T14:08:25.585Z,32.37
2022-08-07T14:11:53.650Z,32.72
2022-08-07T14:14:56.243Z,32.82
2022-08-07T14:18:16.085Z,32.57
2022-08-07T14:22:02.406Z,32.91
2022-08-07T14:24:53.768Z,32.63
2022-08-07T14:28:11.359Z,32.63
2022-08-07T14:31:16.438Z,33.01
2022-08-07T14:34:27.249Z,32.49
2022-08-07T14:41:04.179Z,33.24
2022-08-07T14:44:11.753Z,33.31
2022-08-07T14:47:18.772Z,33.20
2022-08-07T14:50:23.470Z,32.19
2022-08-07T14:54:08.704Z,32.13
2022-08-07T14:56:54.299Z,31.85
2022-08-07T15:00:04.272Z,32.28
2022-08-07T15:03:16.609Z,32.44
2022-08-07T15:06:25.109Z,32.47
2022-08-07T15:09:58.332Z,32.69
2022-08-07T15:12:54.635Z,32.53
2022-08-07T15:16:02.749Z,32.43
2022-08-07T15:19:16.713Z,32.29
2022-08-07T15:22:29.405Z,31.91
2022-08-07T15:25:39.503Z,32.26
2022-08-07T15:28:55.552Z,32.11
2022-08-07T15:36:00.721Z,32.10
2022-08-07T15:46:04.513Z,32.12
2022-08-07T15:50:05.789Z,31.80
2022-08-07T15:52:51.677Z,31.95
2022-08-07T15:56:02.120Z,31.61
2022-08-07T15:59:16.640Z,31.72
2022-08-07T16:02:32.401Z,31.54
2022-08-07T16:05:34.973Z,31.04
2022-08-07T16:08:45.479Z,31.18
2022-08-07T16:12:15.294Z,30.96
2022-08-07T16:15:57.208Z,31.27
2022-08-07T16:19:42.910Z,31.37
2022-08-07T16:23:13.429Z,31.37
2022-08-07T16:26:59.395Z,31.03
2022-08-07T16:30:31.973Z,30.77
2022-08-07T16:34:06.151Z,30.65
2022-08-07T16:38:03.368Z,30.91
2022-08-07T16:41:12.295Z,30.76
2022-08-07T16:45:23.300Z,30.30
2022-08-07T16:49:04.340Z,30.48
2022-08-07T16:52:51.930Z,30.10
2022-08-07T16:55:47.859Z,29.91
2022-08-07T16:59:14.871Z,29.75
2022-08-07T17:02:52.910Z,29.80
2022-08-07T17:06:30.138Z,30.00
2022-08-07T17:10:05.157Z,30.00
2022-08-07T17:13:41.532Z,29.96
2022-08-07T17:17:02.552Z,29.42
2022-08-07T17:20:20.924Z,29.42
2022-08-07T17:23:32.483Z,29.06
2022-08-07T17:26:58.110Z,28.93
2022-08-07T17:30:14.047Z,28.98
2022-08-07T17:34:09.558Z,29.04
2022-08-07T17:37:08.985Z,28.89
2022-08-07T17:40:30.450Z,28.71
2022-08-07T17:44:01.621Z,28.62
2022-08-07T17:47:42.759Z,28.15
2022-08-07T17:50:47.056Z,27.94
2022-08-07T17:54:11.489Z,28.03
2022-08-07T17:57:56.522Z,27.83
2022-08-07T18:00:54.423Z,27.68
2022-08-07T18:04:17.484Z,27.47
2022-08-07T18:07:28.723Z,27.22
2022-08-07T18:11:53.670Z,27.09
2022-08-07T18:14:24.233Z,26.97
2022-08-07T18:18:47.544Z,26.77
2022-08-07T18:21:42.191Z,26.72
2022-08-07T18:24:40.657Z,26.64
2022-08-07T18:28:21.556Z,26.39
2022-08-07T18:32:03.313Z,26.17
2022-08-07T18:35:26.136Z,26.07
2022-08-07T18:38:55.492Z,26.06
2022-08-07T18:42:20.996Z,25.74
2022-08-07T18:46:25.819Z,25.72
2022-08-07T18:50:19.686Z,25.51
2022-08-07T18:53:05.769Z,25.38
2022-08-07T18:56:20.166Z,25.17
2022-08-07T18:59:59.364Z,24.94
2022-08-07T19:03:17.410Z,24.80
2022-08-07T19:06:57.971Z,24.65
2022-08-07T19:10:14.906Z,24.58
2022-08-07T19:13:27.487Z,24.52
2022-08-07T19:17:05.783Z,24.29
2022-08-07T19:20:28.904Z,24.16
2022-08-07T19:23:58.874Z,24.00
2022-08-07T19:28:58.737Z,24.04
2022-08-07T19:31:00.216Z,23.96
2022-08-07T19:33:58.427Z,23.83
2022-08-07T19:37:10.336Z,23.77
2022-08-07T19:40:31.281Z,23.72
2022-08-07T19:43:44.031Z,23.64
2022-08-07T19:46:58.062Z,23.46
2022-08-07T19:50:44.552Z,23.32
2022-08-07T19:54:32.943Z,23.11
2022-08-07T19:57:59.983Z,23.10
2022-08-07T20:00:29.005Z,22.91
2022-08-07T20:03:35.708Z,22.61
2022-08-07T20:06:43.002Z,22.52
2022-08-07T20:10:36.645Z,22.49
2022-08-07T20:13:23.670Z,22.51
2022-08-07T20:16:35.719Z,22.37
2022-08-07T20:19:49.457Z,22.28
2022-08-07T20:23:23.339Z,22.28
2022-08-07T20:26:45.190Z,22.24
2022-08-07T20:29:56.955Z,22.17
2022-08-07T20:33:04.905Z,22.14
2022-08-07T20:36:12.090Z,22.14
2022-08-07T20:40:01.689Z,22.07
2022-08-07T20:42:56.275Z,21.94
2022-08-07T20:46:26.519Z,21.90
2022-08-07T20:50:00.773Z,21.88
2022-08-07T20:52:51.196Z,21.86
2022-08-07T20:55:59.773Z,21.77
2022-08-07T20:59:05.110Z,21.67
2022-08-07T21:02:38.466Z,21.63
2022-08-07T21:05:56.449Z,21.58
2022-08-07T21:09:07.500Z,21.57
2022-08-07T21:12:16.753Z,21.50
2022-08-07T21:15:47.501Z,21.32
2022-08-07T21:19:02.606Z,21.19
2022-08-07T21:22:06.078Z,21.20
2022-08-07T21:25:17.819Z,21.22
2022-08-07T21:28:48.804Z,21.15
2022-08-07T21:32:47.200Z,21.18
2022-08-07T21:36:03.945Z,21.35
2022-08-07T21:39:45.191Z,21.35
2022-08-07T21:42:52.842Z,21.17
2022-08-07T21:46:08.583Z,21.05
2022-08-07T21:50:02.348Z,21.02
2022-08-07T21:53:31.227Z,20.93
2022-08-07T21:56:50.641Z,20.91
2022-08-07T22:00:22.723Z,20.75
2022-08-07T22:03:42.141Z,20.62
2022-08-07T22:06:49.853Z,20.58
2022-08-07T22:10:00.451Z,20.77
2022-08-07T22:13:09.473Z,20.85
2022-08-07T22:16:38.346Z,20.85
2022-08-07T22:19:57.223Z,20.75
2022-08-07T22:23:21.754Z,20.58
2022-08-07T22:26:44.677Z,20.32
2022-08-07T22:29:56.646Z,20.10
2022-08-07T22:33:06.262Z,19.71
2022-08-07T22:36:52.543Z,19.64
2022-08-07T22:40:09.085Z,19.64
2022-08-07T22:43:15.793Z,19.59
2022-08-07T22:47:03.025Z,19.65
2022-08-07T22:49:55.027Z,19.55
2022-08-07T22:54:06.326Z,19.41
2022-08-07T22:57:25.758Z,19.19
2022-08-07T23:01:10.585Z,19.15
2022-08-07T23:04:28.932Z,19.12
2022-08-07T23:07:42.906Z,19.12
2022-08-07T23:11:17.196Z,19.02
2022-08-07T23:14:56.870Z,18.90
2022-08-07T23:18:32.024Z,18.84
2022-08-07T23:21:56.438Z,18.80
2022-08-07T23:25:17.055Z,18.69
2022-08-07T23:28:44.256Z,18.53
2022-08-07T23:34:22.386Z,18.47
2022-08-07T23:35:37.711Z,18.49
2022-08-07T23:39:08.517Z,18.48
2022-08-07T23:43:03.186Z,18.47
2022-08-07T23:46:51.683Z,18.44
2022-08-07T23:51:01.307Z,18.42
2022-08-07T23:54:44.028Z,18.38
2022-08-07T23:58:04.280Z,18.44
